AGROMETEOROLOŠKI PORTAL

vinorodna pokrajina

Temelj dobrega kmetovanja

Pregled podatkov za lokacijo MARINČA VAS - ARSO, meteorološka postaja 160

Pregled senzorjev na lokaciji

ID Ime Zadnja
vrednost
Datum in čas
meritve
(lokalni čas)
Tip
senzorja
5966 Padavine (mm) 0 mm 1.2.2023 12:30 ARSO
5968 Relativna zračna vlaga (2 m) (% RH) 61 % RH 1.2.2023 12:30 ARSO
5967 Temperatura (2 m) (°C) 5,1 °C 1.2.2023 12:30 ARSO

Pregled podatkov zadnjih 24 ur

Zap.
št.
Datum in čas
(lokalni čas)
MARINČA VAS - ARSO
Padavine Relativna
zračna
vlaga
(2
m)
Temperatura
(2
m)
1 1.2.2023 12:30 0 61 5,1
2 1.2.2023 12:00 0 65,7 4
3 1.2.2023 11:30 0 65,7 3,4
4 1.2.2023 11:00 0 78,3 0,9
5 1.2.2023 10:30 0 85 -1,3
6 1.2.2023 10:00 0 86 -2,9
7 1.2.2023 09:30 0 93,3 -4,9
8 1.2.2023 09:00 0 94 -6,5
9 1.2.2023 08:30 0 91,7 -7,5
10 1.2.2023 08:00 0 91,3 -8,5
11 1.2.2023 07:30 0 90 -8,9
12 1.2.2023 07:00 0 89,7 -8,8
13 1.2.2023 06:30 0 90 -8,4
14 1.2.2023 06:00 0 90,7 -8,1
15 1.2.2023 05:30 0 90,7 -7,6
16 1.2.2023 05:00 0 92 -7,3
17 1.2.2023 04:30 0 90 -8
18 1.2.2023 04:00 0 91 -7,4
19 1.2.2023 03:30 0 91,7 -6,9
20 1.2.2023 03:00 0 92 -6,8
21 1.2.2023 02:30 0 91 -6,9
22 1.2.2023 02:00 0 92,7 -5,8
23 1.2.2023 01:30 0 91,7 -6,4
24 1.2.2023 01:00 0 92,3 -5,8
25 1.2.2023 00:30 0 92 -5,9
26 1.2.2023 00:00 0 92 -5,6
27 31.1.2023 23:30 0 92 -4,9
28 31.1.2023 23:00 0 91 -5
29 31.1.2023 22:30 0 89 -4,5
30 31.1.2023 22:00 0 91 -4,1
31 31.1.2023 21:30 0 91 -3,7
32 31.1.2023 21:00 0 88,3 -3,8
33 31.1.2023 20:30 0 88,7 -2,8
34 31.1.2023 20:00 0 87,7 -2,7
35 31.1.2023 19:30 0 87 -2,7
36 31.1.2023 19:00 0 83,7 -1,9
37 31.1.2023 18:30 0 81,7 -1,1
38 31.1.2023 18:00 0 78 -0,4
39 31.1.2023 17:30 0 69 1,5
40 31.1.2023 17:00 0,2 55 4,2
41 31.1.2023 16:30 0 39,7 7
42 31.1.2023 16:00 0 43 7,2
43 31.1.2023 15:30 0 49,7 6,6
44 31.1.2023 15:00 0 52 6,6
45 31.1.2023 14:30 0 53,7 6,4
46 31.1.2023 14:00 0 53,3 6
47 31.1.2023 13:30 0 55,3 5,5
48 31.1.2023 13:00 0 56,7 5,6